Briercrest, Canada
Current Conditions -  °F | °C
As of 2:00 AM on Monday 20 Oct 2014 (Local Time) from CYQR Reporting Station
Clear Clear  
Wind Chill: 31°   Ceiling: Unl
Heat Index: 37°   Visibility: 15mi
Dew Point: 36°   Wind: 9mph
Humidity: 93%   Direction: 110°ESE
Pressure: 29.93"   Gusts: NA
Location:  50.17°N, 105.27°W
Report Text: CYQR 200800Z 11008KT 15SM SKC 03/02 A2993 RMK SLP147
Loading
Personal Weather Stations






























Interactive Weather Map New forecast layout! Learn more

10-Day Weather Forecast

Advertisements
Track Severe Weather on mobile